首页
METAR-TAF:

METAR-TAF

机场 :

兰伯特-圣路易斯国际机场

圣路易斯, 密蘇里州, 美国

纬度: 38-45-09N, 经度: 090-22-25W, 海拔: 184米

当前天气观测

该预报发布于42分钟前的18:51 UTC
风速8节,风向东北
温度 4°C
湿度 48%
气压 1035 hPa
能見度: 16.1公里
多云层高于25000英尺

METAR: KSTL 191851Z 05008KT 10SM BKN250 04/M06 A3055 RMK AO2 SLP354 T00441061

时间: 13:33 (19:33 UTC)

预报

该预报发布于2小时和13分钟前的17:20 UTC
预报有效从19日的 18点(UTC)到 20日的 24点(UTC)
风速6节,风向北转东北
能見度: 10公里
天空无云
从 20日的 0500点(UTC)
风速7节,风向北转东北
能見度: 10公里
阴天层高于10000英尺
从 20日的 1200点(UTC)
风速11节,风向
能見度: 10公里
散云层高于10000英尺
从 20日的 1800点(UTC)
风速11节,风向,有时为20节阵风
能見度: 10公里
天空无云

TAF: KSTL 191720Z 1918/2024 03006KT P6SM SKC FM200500 03007KT P6SM OVC100 FM201200 01011KT P6SM SCT100 FM201800 36011G20KT P6SM SKC

超过4000个机场的气象观测和天气预报(METAR&TAF报告)。

可查询的气象台以黄色和红色小点在地图上表示。

将鼠标移到小点上方,可查看气象台名称。

然后点击查看天气观测和预报。

如需切换地图:点击带黑十字的绿色按钮放大地图;点击带横线的绿色按钮缩小地图;或者点击绿色箭头查看邻近地区的地图。


METAR-TAF: